createdAt,value
2019-05-21T00:01:04.069Z,18.70
2019-05-21T00:03:30.326Z,18.70
2019-05-21T00:05:56.566Z,18.70
2019-05-21T00:08:23.982Z,18.70
2019-05-21T00:10:50.322Z,18.60
2019-05-21T00:13:16.664Z,18.60
2019-05-21T00:15:43.054Z,18.60
2019-05-21T00:18:10.941Z,18.60
2019-05-21T00:20:37.431Z,18.60
2019-05-21T00:23:03.660Z,18.60
2019-05-21T00:25:36.066Z,18.50
2019-05-21T00:28:21.323Z,18.60
2019-05-21T00:31:25.231Z,18.40
2019-05-21T00:34:43.073Z,18.40
2019-05-21T00:37:34.517Z,18.40
2019-05-21T00:40:38.115Z,18.40
2019-05-21T00:43:05.494Z,18.40
2019-05-21T00:45:31.724Z,18.40
2019-05-21T00:47:57.988Z,18.30
2019-05-21T00:50:24.530Z,18.40
2019-05-21T00:52:50.823Z,18.40
2019-05-21T00:55:17.084Z,18.30
2019-05-21T00:57:43.462Z,18.30
2019-05-21T01:00:11.093Z,18.20
2019-05-21T01:02:37.503Z,18.20
2019-05-21T01:05:05.071Z,18.10
2019-05-21T01:07:31.297Z,18.20
2019-05-21T01:09:57.576Z,18.10
2019-05-21T01:12:23.845Z,18.00
2019-05-21T01:14:50.131Z,18.00
2019-05-21T01:17:16.471Z,18.10
2019-05-21T01:19:42.723Z,18.10
2019-05-21T01:22:09.100Z,18.00
2019-05-21T01:24:35.335Z,18.00
2019-05-21T01:27:01.683Z,17.90
2019-05-21T01:29:27.945Z,18.00
2019-05-21T01:31:54.168Z,18.00
2019-05-21T01:34:20.446Z,17.90
2019-05-21T01:36:46.798Z,17.90
2019-05-21T01:39:13.245Z,17.90
2019-05-21T01:41:39.511Z,17.80
2019-05-21T01:44:05.811Z,17.80
2019-05-21T01:46:32.191Z,17.70
2019-05-21T01:48:58.609Z,17.80
2019-05-21T01:51:25.011Z,17.70
2019-05-21T01:53:51.277Z,17.60
2019-05-21T01:56:17.642Z,17.60
2019-05-21T01:58:44.032Z,17.50
2019-05-21T02:01:10.321Z,17.50
2019-05-21T02:03:36.856Z,17.40
2019-05-21T02:06:03.186Z,17.40
2019-05-21T02:08:29.462Z,17.40
2019-05-21T02:10:55.965Z,17.40
2019-05-21T02:13:22.213Z,17.40
2019-05-21T02:15:48.457Z,17.40
2019-05-21T02:18:14.758Z,17.40
2019-05-21T02:20:40.963Z,17.40
2019-05-21T02:23:07.331Z,17.40
2019-05-21T02:25:33.593Z,17.40
2019-05-21T02:27:59.980Z,17.30
2019-05-21T02:30:26.324Z,17.30
2019-05-21T02:32:52.601Z,17.20
2019-05-21T02:35:18.876Z,17.20
2019-05-21T02:37:45.299Z,17.20
2019-05-21T02:40:12.355Z,17.20
2019-05-21T02:42:38.638Z,17.10
2019-05-21T02:45:05.850Z,17.10
2019-05-21T02:47:32.089Z,17.10
2019-05-21T02:49:58.514Z,17.00
2019-05-21T02:52:24.722Z,17.00
2019-05-21T02:54:51.637Z,17.00
2019-05-21T02:57:17.879Z,16.90
2019-05-21T02:59:46.024Z,17.00
2019-05-21T03:02:31.152Z,17.00
2019-05-21T03:04:57.591Z,17.00
2019-05-21T03:07:25.687Z,16.90
2019-05-21T03:09:52.324Z,17.00
2019-05-21T03:12:18.817Z,16.90
2019-05-21T03:14:45.665Z,16.90
2019-05-21T03:17:12.131Z,16.90
2019-05-21T03:19:38.462Z,16.90
2019-05-21T03:22:04.941Z,17.00
2019-05-21T03:24:31.446Z,17.00
2019-05-21T03:26:57.673Z,16.90
2019-05-21T03:29:24.252Z,17.00
2019-05-21T03:31:50.541Z,16.90
2019-05-21T03:34:16.886Z,16.90
2019-05-21T03:36:43.096Z,16.90
2019-05-21T03:39:09.371Z,16.90
2019-05-21T03:41:37.670Z,16.90
2019-05-21T03:44:04.019Z,16.90
2019-05-21T03:46:30.404Z,16.90
2019-05-21T03:48:56.639Z,16.90
2019-05-21T03:51:22.897Z,16.90
2019-05-21T03:53:49.168Z,16.90
2019-05-21T03:56:15.514Z,16.90
2019-05-21T03:58:41.917Z,16.90
2019-05-21T04:01:08.147Z,16.90
2019-05-21T04:03:34.447Z,16.80
2019-05-21T04:06:00.937Z,16.80
2019-05-21T04:08:27.188Z,16.80
2019-05-21T04:10:53.473Z,16.80
2019-05-21T04:13:19.731Z,16.80
2019-05-21T04:16:06.267Z,16.80
2019-05-21T04:18:49.758Z,16.80
2019-05-21T04:21:16.149Z,16.80
2019-05-21T04:23:42.369Z,16.90
2019-05-21T04:26:08.656Z,16.80
2019-05-21T04:28:34.969Z,16.80
2019-05-21T04:31:01.246Z,16.80
2019-05-21T04:33:27.468Z,16.80
2019-05-21T04:35:53.721Z,16.80
2019-05-21T04:38:20.007Z,16.80
2019-05-21T04:40:46.462Z,16.80
2019-05-21T04:43:12.835Z,16.80
2019-05-21T04:45:39.235Z,16.80
2019-05-21T04:48:05.570Z,16.80
2019-05-21T04:50:31.829Z,16.80
2019-05-21T04:52:58.089Z,16.80
2019-05-21T04:55:24.476Z,16.80
2019-05-21T04:57:50.805Z,16.80
2019-05-21T05:00:17.273Z,16.90
2019-05-21T05:02:43.545Z,16.90
2019-05-21T05:05:10.355Z,16.90
2019-05-21T05:07:36.633Z,16.80
2019-05-21T05:10:04.886Z,16.90
2019-05-21T05:12:31.171Z,16.90
2019-05-21T05:14:57.694Z,16.80
2019-05-21T05:17:24.050Z,16.80
2019-05-21T05:19:50.275Z,16.70
2019-05-21T05:22:16.521Z,16.80
2019-05-21T05:24:45.743Z,16.80
2019-05-21T05:27:14.052Z,16.90
2019-05-21T05:29:40.386Z,16.90
2019-05-21T05:32:06.845Z,16.90
2019-05-21T05:34:33.074Z,17.00
2019-05-21T05:36:59.337Z,17.00
2019-05-21T05:39:25.595Z,17.30
2019-05-21T05:41:51.883Z,17.50
2019-05-21T05:44:18.126Z,17.70
2019-05-21T05:46:44.403Z,17.90
2019-05-21T05:49:18.651Z,18.00
2019-05-21T05:51:45.068Z,18.10
2019-05-21T05:54:11.491Z,18.20
2019-05-21T05:56:37.878Z,18.30
2019-05-21T05:59:04.296Z,18.20
2019-05-21T06:01:32.423Z,18.20
2019-05-21T06:03:58.684Z,18.30
2019-05-21T06:06:25.132Z,18.40
2019-05-21T06:08:51.418Z,18.50
2019-05-21T06:11:17.932Z,18.50
2019-05-21T06:13:44.304Z,18.60
2019-05-21T06:16:10.572Z,18.60
2019-05-21T06:18:36.851Z,18.50
2019-05-21T06:21:03.188Z,18.60
2019-05-21T06:23:29.645Z,18.30
2019-05-21T06:25:56.001Z,18.10
2019-05-21T06:28:22.246Z,18.00
2019-05-21T06:30:48.586Z,17.70
2019-05-21T06:33:14.828Z,17.70
2019-05-21T06:35:41.083Z,17.60
2019-05-21T06:38:17.246Z,17.60
2019-05-21T06:40:38.476Z,17.60
2019-05-21T06:43:03.699Z,17.60
2019-05-21T06:45:30.129Z,17.60
2019-05-21T06:47:56.369Z,17.60
2019-05-21T06:50:22.625Z,17.60
2019-05-21T06:52:49.085Z,17.50
2019-05-21T06:55:15.626Z,17.60
2019-05-21T06:57:41.975Z,17.50
2019-05-21T07:00:08.846Z,17.50
2019-05-21T07:02:35.200Z,17.50
2019-05-21T07:05:03.077Z,17.50
2019-05-21T07:07:29.262Z,17.50
2019-05-21T07:09:55.563Z,17.40
2019-05-21T07:12:21.839Z,17.40
2019-05-21T07:14:48.499Z,17.40
2019-05-21T07:17:15.019Z,17.30
2019-05-21T07:19:41.368Z,17.30
2019-05-21T07:22:12.676Z,17.40
2019-05-21T07:24:36.606Z,17.40
2019-05-21T07:27:03.031Z,17.40
2019-05-21T07:29:29.287Z,17.40
2019-05-21T07:31:55.615Z,17.30
2019-05-21T07:34:21.884Z,17.30
2019-05-21T07:36:48.175Z,17.20
2019-05-21T07:39:14.554Z,17.20
2019-05-21T07:41:40.905Z,17.20
2019-05-21T07:44:07.197Z,17.30
2019-05-21T07:46:33.555Z,17.30
2019-05-21T07:48:59.795Z,17.30
2019-05-21T07:51:26.119Z,17.30
2019-05-21T07:53:52.763Z,17.40
2019-05-21T07:56:18.987Z,17.30
2019-05-21T07:58:45.374Z,17.30
2019-05-21T08:01:11.857Z,17.30
2019-05-21T08:03:38.165Z,17.30
2019-05-21T08:06:04.423Z,17.30
2019-05-21T08:08:30.701Z,17.20
2019-05-21T08:10:56.967Z,17.30
2019-05-21T08:13:23.311Z,17.10
2019-05-21T08:15:49.610Z,17.20
2019-05-21T08:18:15.887Z,17.00
2019-05-21T08:20:42.267Z,17.00
2019-05-21T08:23:08.503Z,17.10
2019-05-21T08:25:34.745Z,17.20
2019-05-21T08:28:01.231Z,17.10
2019-05-21T08:30:29.453Z,16.70
2019-05-21T08:32:55.857Z,16.60
2019-05-21T08:35:22.185Z,16.60
2019-05-21T08:37:48.877Z,16.70
2019-05-21T08:40:15.305Z,16.70
2019-05-21T08:42:41.664Z,16.80
2019-05-21T08:45:09.003Z,16.90
2019-05-21T08:47:35.348Z,17.00
2019-05-21T08:50:06.363Z,17.00
2019-05-21T08:52:32.884Z,17.00
2019-05-21T08:54:59.126Z,17.10
2019-05-21T08:57:25.509Z,17.10
2019-05-21T08:59:51.965Z,17.10
2019-05-21T09:02:18.605Z,17.10
2019-05-21T09:04:46.670Z,17.20
2019-05-21T09:07:14.397Z,17.20
2019-05-21T09:09:50.251Z,16.90
2019-05-21T09:12:09.472Z,16.70
2019-05-21T09:14:35.872Z,16.80
2019-05-21T09:17:02.256Z,16.70
2019-05-21T09:19:28.741Z,16.70
2019-05-21T09:21:55.365Z,16.70
2019-05-21T09:24:21.803Z,16.70
2019-05-21T09:26:48.258Z,16.80
2019-05-21T09:29:14.632Z,16.70
2019-05-21T09:31:40.983Z,16.40
2019-05-21T09:34:07.458Z,16.20
2019-05-21T09:36:33.852Z,16.10
2019-05-21T09:39:00.107Z,16.10
2019-05-21T09:41:26.476Z,16.10
2019-05-21T09:43:52.769Z,16.20
2019-05-21T09:46:21.567Z,16.00
2019-05-21T09:48:48.024Z,16.00
2019-05-21T09:51:19.775Z,16.00
2019-05-21T09:53:42.462Z,16.00
2019-05-21T09:56:27.214Z,16.10
2019-05-21T09:58:55.399Z,16.20
2019-05-21T10:01:23.682Z,16.40
2019-05-21T10:03:55.040Z,16.30
2019-05-21T10:06:21.424Z,16.30
2019-05-21T10:08:48.059Z,16.30
2019-05-21T10:11:14.532Z,16.50
2019-05-21T10:13:40.967Z,16.50
2019-05-21T10:16:07.322Z,16.40
2019-05-21T10:18:33.569Z,16.50
2019-05-21T10:20:59.953Z,16.40
2019-05-21T10:23:26.449Z,16.60
2019-05-21T10:25:52.856Z,16.70
2019-05-21T10:28:19.131Z,16.60
2019-05-21T10:30:45.480Z,16.50
2019-05-21T10:33:11.966Z,16.50
2019-05-21T10:35:38.368Z,16.50
2019-05-21T10:38:04.912Z,16.40
2019-05-21T10:40:31.276Z,16.50
2019-05-21T10:42:57.571Z,16.50
2019-05-21T10:45:24.074Z,16.60
2019-05-21T10:47:50.313Z,16.80
2019-05-21T10:50:16.751Z,16.80
2019-05-21T10:52:43.270Z,16.70
2019-05-21T10:55:11.633Z,16.40
2019-05-21T10:57:37.935Z,16.40
2019-05-21T11:00:08.989Z,16.40
2019-05-21T11:02:37.059Z,16.50
2019-05-21T11:05:07.444Z,16.60
2019-05-21T11:07:34.035Z,16.60
2019-05-21T11:10:00.629Z,16.60
2019-05-21T11:12:26.923Z,16.60
2019-05-21T11:14:53.270Z,16.70
2019-05-21T11:17:20.307Z,16.60
2019-05-21T11:19:46.798Z,16.70
2019-05-21T11:22:13.050Z,16.70
2019-05-21T11:24:39.324Z,16.80
2019-05-21T11:27:06.194Z,16.70
2019-05-21T11:29:32.696Z,16.80
2019-05-21T11:31:58.966Z,16.80
2019-05-21T11:34:25.312Z,16.70
2019-05-21T11:36:52.689Z,16.80
2019-05-21T11:39:19.112Z,16.90
2019-05-21T11:41:45.385Z,16.80
2019-05-21T11:44:15.061Z,16.80
2019-05-21T11:46:41.423Z,16.90
2019-05-21T11:49:07.809Z,17.00
2019-05-21T11:51:34.071Z,17.00
2019-05-21T11:54:00.405Z,17.00
2019-05-21T11:56:26.738Z,17.00
2019-05-21T11:58:53.003Z,17.10
2019-05-21T12:01:19.402Z,17.00
2019-05-21T12:03:45.736Z,16.80
2019-05-21T12:06:12.259Z,16.90
2019-05-21T12:08:38.639Z,17.00
2019-05-21T12:11:05.064Z,17.10
2019-05-21T12:13:31.309Z,17.10
2019-05-21T12:15:57.576Z,17.00
2019-05-21T12:18:23.922Z,17.00
2019-05-21T12:20:50.162Z,17.10
2019-05-21T12:23:16.524Z,17.20
2019-05-21T12:25:43.058Z,17.40
2019-05-21T12:28:11.338Z,17.40
2019-05-21T12:30:37.691Z,17.40
2019-05-21T12:33:04.239Z,17.40
2019-05-21T12:35:30.566Z,17.30
2019-05-21T12:37:57.336Z,17.30
2019-05-21T12:40:23.781Z,17.40
2019-05-21T12:42:50.319Z,17.30
2019-05-21T12:45:16.862Z,17.20
2019-05-21T12:47:43.280Z,17.10
2019-05-21T12:50:10.157Z,17.10
2019-05-21T12:52:36.616Z,17.10
2019-05-21T12:55:06.521Z,17.10
2019-05-21T12:57:32.990Z,17.20
2019-05-21T12:59:59.391Z,17.30
2019-05-21T13:02:26.061Z,17.40
2019-05-21T13:04:52.284Z,17.40
2019-05-21T13:07:18.573Z,17.40
2019-05-21T13:09:44.966Z,17.30
2019-05-21T13:12:11.347Z,17.30
2019-05-21T13:14:37.770Z,17.40
2019-05-21T13:17:04.178Z,17.50
2019-05-21T13:19:30.605Z,17.60
2019-05-21T13:21:56.982Z,17.50
2019-05-21T13:24:23.297Z,17.50
2019-05-21T13:26:49.688Z,17.60
2019-05-21T13:29:16.128Z,17.50
2019-05-21T13:31:42.550Z,17.40
2019-05-21T13:34:08.793Z,17.30
2019-05-21T13:36:35.123Z,17.40
2019-05-21T13:39:01.472Z,17.40
2019-05-21T13:41:27.878Z,17.40
2019-05-21T13:43:54.131Z,17.50
2019-05-21T13:46:20.576Z,17.40
2019-05-21T13:48:47.304Z,17.50
2019-05-21T13:51:14.790Z,17.40
2019-05-21T13:53:41.033Z,17.40
2019-05-21T13:56:07.396Z,17.30
2019-05-21T13:58:34.163Z,17.10
2019-05-21T14:01:01.194Z,17.00
2019-05-21T14:03:27.517Z,16.90
2019-05-21T14:05:54.478Z,16.90
2019-05-21T14:08:20.871Z,16.90
2019-05-21T14:10:47.200Z,16.70
2019-05-21T14:13:13.469Z,16.70
2019-05-21T14:15:39.701Z,16.70
2019-05-21T14:18:06.296Z,16.80
2019-05-21T14:20:32.640Z,16.70
2019-05-21T14:22:59.175Z,16.70
2019-05-21T14:25:25.417Z,16.50
2019-05-21T14:27:51.850Z,16.60
2019-05-21T14:30:18.329Z,16.50
2019-05-21T14:32:44.654Z,16.60
2019-05-21T14:35:11.140Z,16.50
2019-05-21T14:37:37.492Z,16.70
2019-05-21T14:40:07.710Z,16.70
2019-05-21T14:42:34.094Z,16.60
2019-05-21T14:45:00.946Z,16.60
2019-05-21T14:47:27.557Z,16.60
2019-05-21T14:49:54.805Z,16.60
2019-05-21T14:52:21.366Z,16.60
2019-05-21T14:54:47.697Z,16.50
2019-05-21T14:57:14.097Z,16.40
2019-05-21T14:59:41.035Z,16.30
2019-05-21T15:02:07.704Z,16.20
2019-05-21T15:04:36.069Z,16.30
2019-05-21T15:07:03.011Z,16.10
2019-05-21T15:09:29.378Z,16.20
2019-05-21T15:11:56.050Z,16.10
2019-05-21T15:14:22.577Z,16.10
2019-05-21T15:16:48.953Z,15.90
2019-05-21T15:19:16.022Z,15.80
2019-05-21T15:21:44.445Z,15.80
2019-05-21T15:24:11.018Z,15.80
2019-05-21T15:26:37.773Z,15.70
2019-05-21T15:29:04.231Z,15.80
2019-05-21T15:31:30.814Z,15.80
2019-05-21T15:33:57.302Z,15.80
2019-05-21T15:36:23.680Z,15.80
2019-05-21T15:38:51.151Z,15.80
2019-05-21T15:41:17.849Z,15.70
2019-05-21T15:43:44.240Z,15.70
2019-05-21T15:46:10.689Z,15.60
2019-05-21T15:48:37.638Z,15.60
2019-05-21T15:51:04.249Z,15.60
2019-05-21T15:53:30.553Z,15.40
2019-05-21T15:55:56.910Z,15.40
2019-05-21T15:58:26.733Z,15.50
2019-05-21T16:00:52.129Z,15.50
2019-05-21T16:03:18.627Z,15.40
2019-05-21T16:05:45.114Z,15.30
2019-05-21T16:08:11.493Z,15.10
2019-05-21T16:10:38.105Z,15.20
2019-05-21T16:13:04.584Z,15.20
2019-05-21T16:15:31.355Z,14.90
2019-05-21T16:17:57.943Z,15.00
2019-05-21T16:20:24.422Z,14.70
2019-05-21T16:22:50.922Z,14.80
2019-05-21T16:25:17.676Z,14.80
2019-05-21T16:27:43.978Z,14.80
2019-05-21T16:30:10.476Z,14.90
2019-05-21T16:32:37.133Z,14.80
2019-05-21T16:35:06.633Z,14.80
2019-05-21T16:37:33.011Z,14.90
2019-05-21T16:40:01.304Z,15.00
2019-05-21T16:42:27.554Z,15.00
2019-05-21T16:44:53.859Z,14.90
2019-05-21T16:47:22.233Z,15.00
2019-05-21T16:49:48.696Z,14.70
2019-05-21T16:52:14.993Z,14.80
2019-05-21T16:54:41.357Z,14.80
2019-05-21T16:57:11.767Z,14.90
2019-05-21T16:59:38.282Z,14.80
2019-05-21T17:02:04.999Z,15.10
2019-05-21T17:04:31.417Z,15.10
2019-05-21T17:06:57.823Z,14.80
2019-05-21T17:09:28.149Z,14.80
2019-05-21T17:11:59.850Z,14.70
2019-05-21T17:14:25.308Z,14.70
2019-05-21T17:16:51.811Z,14.80
2019-05-21T17:19:18.234Z,14.80
2019-05-21T17:21:44.745Z,14.80
2019-05-21T17:24:11.252Z,15.00
2019-05-21T17:26:37.503Z,14.70
2019-05-21T17:29:04.108Z,14.50
2019-05-21T17:31:30.461Z,14.20
2019-05-21T17:33:56.831Z,14.20
2019-05-21T17:36:23.129Z,14.30
2019-05-21T17:38:49.433Z,14.20
2019-05-21T17:41:15.981Z,14.20
2019-05-21T17:43:42.362Z,14.20
2019-05-21T17:46:08.923Z,14.30
2019-05-21T17:48:35.584Z,14.40
2019-05-21T17:51:01.986Z,14.40
2019-05-21T17:53:28.750Z,14.40
2019-05-21T17:55:55.009Z,14.30
2019-05-21T17:58:21.599Z,14.40
2019-05-21T18:00:50.158Z,14.50
2019-05-21T18:03:16.917Z,14.40
2019-05-21T18:05:44.704Z,14.30
2019-05-21T18:08:11.276Z,14.10
2019-05-21T18:10:37.664Z,14.20
2019-05-21T18:13:04.170Z,14.20
2019-05-21T18:15:30.728Z,14.20
2019-05-21T18:17:57.483Z,14.20
2019-05-21T18:20:24.311Z,14.10
2019-05-21T18:22:51.343Z,14.00
2019-05-21T18:25:18.244Z,14.10
2019-05-21T18:27:46.728Z,14.30
2019-05-21T18:30:17.691Z,14.20
2019-05-21T18:32:44.354Z,14.10
2019-05-21T18:35:11.041Z,14.00
2019-05-21T18:37:37.542Z,13.90
2019-05-21T18:40:06.422Z,14.00
2019-05-21T18:42:32.818Z,13.90
2019-05-21T18:44:59.195Z,14.00
2019-05-21T18:47:25.606Z,13.90
2019-05-21T18:49:52.077Z,13.90
2019-05-21T18:52:18.815Z,13.90
2019-05-21T18:54:47.841Z,13.90
2019-05-21T18:57:13.886Z,13.90
2019-05-21T18:59:40.184Z,14.00
2019-05-21T19:02:09.204Z,13.90
2019-05-21T19:04:37.434Z,13.90
2019-05-21T19:07:05.868Z,13.90
2019-05-21T19:09:32.214Z,13.90
2019-05-21T19:11:58.718Z,13.90
2019-05-21T19:14:25.075Z,13.90
2019-05-21T19:16:51.602Z,13.80
2019-05-21T19:19:18.124Z,13.80
2019-05-21T19:21:46.342Z,13.70
2019-05-21T19:24:12.791Z,13.80
2019-05-21T19:26:39.744Z,13.80
2019-05-21T19:29:07.885Z,13.60
2019-05-21T19:31:34.441Z,13.60
2019-05-21T19:34:02.643Z,13.70
2019-05-21T19:36:29.675Z,13.80
2019-05-21T19:38:58.333Z,13.60
2019-05-21T19:41:25.070Z,13.50
2019-05-21T19:43:51.588Z,13.50
2019-05-21T19:46:17.882Z,13.50
2019-05-21T19:48:44.477Z,13.40
2019-05-21T19:51:11.422Z,13.40
2019-05-21T19:53:38.776Z,13.60
2019-05-21T19:56:05.371Z,13.50
2019-05-21T19:58:31.885Z,13.50
2019-05-21T20:00:58.586Z,13.70
2019-05-21T20:03:25.813Z,13.70
2019-05-21T20:05:52.288Z,13.70
2019-05-21T20:08:18.780Z,13.60
2019-05-21T20:10:45.637Z,13.50
2019-05-21T20:13:12.575Z,13.40
2019-05-21T20:15:39.591Z,13.30
2019-05-21T20:18:07.654Z,13.30
2019-05-21T20:20:36.706Z,13.40
2019-05-21T20:23:08.145Z,13.40
2019-05-21T20:25:34.421Z,13.40
2019-05-21T20:28:01.198Z,13.40
2019-05-21T20:30:27.856Z,13.40
2019-05-21T20:32:56.915Z,13.30
2019-05-21T20:35:26.814Z,13.20
2019-05-21T20:37:55.275Z,13.40
2019-05-21T20:40:23.951Z,13.30
2019-05-21T20:42:52.250Z,13.20
2019-05-21T20:45:21.533Z,13.20
2019-05-21T20:47:51.178Z,13.20
2019-05-21T20:50:20.971Z,13.10
2019-05-21T20:52:50.554Z,13.30
2019-05-21T20:55:19.064Z,13.30
2019-05-21T20:57:46.393Z,13.40
2019-05-21T21:00:16.653Z,13.20
2019-05-21T21:02:43.923Z,13.20
2019-05-21T21:05:11.571Z,13.00
2019-05-21T21:07:41.368Z,13.00
2019-05-21T21:10:09.072Z,13.10
2019-05-21T21:12:37.901Z,13.20
2019-05-21T21:15:06.020Z,13.10
2019-05-21T21:17:32.737Z,13.10
2019-05-21T21:19:59.184Z,13.10
2019-05-21T21:22:25.708Z,13.10
2019-05-21T21:24:51.987Z,13.00
2019-05-21T21:27:18.774Z,12.90
2019-05-21T21:29:45.207Z,12.90
2019-05-21T21:32:11.774Z,13.00
2019-05-21T21:34:38.436Z,13.10
2019-05-21T21:37:05.140Z,13.00
2019-05-21T21:39:32.039Z,13.30
2019-05-21T21:41:58.904Z,13.50
2019-05-21T21:44:33.717Z,13.50
2019-05-21T21:46:53.919Z,13.30
2019-05-21T21:49:20.154Z,13.40
2019-05-21T21:51:47.193Z,13.30
2019-05-21T21:54:13.981Z,13.20
2019-05-21T21:56:40.264Z,13.60
2019-05-21T21:59:06.819Z,13.30
2019-05-21T22:01:51.450Z,13.00
2019-05-21T22:04:21.187Z,12.70
2019-05-21T22:06:49.042Z,12.80
2019-05-21T22:09:17.280Z,12.90
2019-05-21T22:11:44.847Z,12.90
2019-05-21T22:14:12.117Z,12.60
2019-05-21T22:16:39.178Z,12.50
2019-05-21T22:19:06.059Z,12.60
2019-05-21T22:21:33.160Z,12.50
2019-05-21T22:23:59.393Z,12.60
2019-05-21T22:26:26.029Z,12.50
2019-05-21T22:28:52.350Z,12.40
2019-05-21T22:31:18.833Z,12.40
2019-05-21T22:33:45.109Z,12.30
2019-05-21T22:36:11.809Z,12.40
2019-05-21T22:38:38.133Z,12.50
2019-05-21T22:41:04.494Z,12.40
2019-05-21T22:43:30.961Z,12.40
2019-05-21T22:45:57.214Z,12.40
2019-05-21T22:48:23.592Z,12.40
2019-05-21T22:50:50.133Z,12.40
2019-05-21T22:53:16.475Z,12.40
2019-05-21T22:55:42.809Z,12.40
2019-05-21T22:58:09.098Z,12.50
2019-05-21T23:00:35.368Z,12.50
2019-05-21T23:03:01.906Z,12.30
2019-05-21T23:05:28.176Z,12.30
2019-05-21T23:07:54.520Z,12.20
2019-05-21T23:10:21.106Z,12.20
2019-05-21T23:12:47.486Z,12.30
2019-05-21T23:15:24.284Z,12.20
2019-05-21T23:17:43.343Z,12.20
2019-05-21T23:20:11.785Z,12.20
2019-05-21T23:22:39.337Z,12.20
2019-05-21T23:25:06.093Z,12.30
2019-05-21T23:27:32.767Z,12.30
2019-05-21T23:29:59.602Z,12.10
2019-05-21T23:32:27.056Z,12.20
2019-05-21T23:34:53.608Z,12.30
2019-05-21T23:37:20.663Z,12.20
2019-05-21T23:39:49.132Z,12.10
2019-05-21T23:42:28.626Z,12.10
2019-05-21T23:44:44.928Z,12.10
2019-05-21T23:47:12.795Z,12.10
2019-05-21T23:49:41.413Z,12.10
2019-05-21T23:52:08.181Z,12.10
2019-05-21T23:54:34.429Z,12.10
2019-05-21T23:57:02.479Z,12.10
2019-05-21T23:59:28.751Z,12.00
